BGJN

Ilulissat Airport

Ilulissat, Greenland
METAR BGJN 181150Z 04006KT 9999 SCT016 M16/M19 Q1003
Observed Flight Rules
Jan-18 @ 11:50 UTC (30 minutes ago) Visual Flight Rules
Wind Visibility Clouds
40° at 6 knots 10,000+ meters
  • Scattered at 1,600' AGL
Temperatures Readings
Current -16°C / 3°F
Dewpoint -19°C / -2°F
Humidity 78%
Altimeter 29.62" Hg
Pressure 1002.92 hPa
Elevation 25
METAR BGJN 181150Z 04006KT 9999 SCT016 M16/M19 Q1003
Observed Flight Rules
Jan-18 @ 11:50 UTC
(30 minutes ago)
VFR
Wind Visibility
40° at 6 knots 10,000+ meters
Clouds
  • Scattered at 1,600' AGL
Temperature Dewpoint
-16°C / 3°F -19°C / -2°F
Humidity Altimeter Pressure
78% 29.62" Hg 1002.92 hPa